Latest Weather Observations for Samuel Hill

IDQ60801

Issued at 3:32 am EST Tuesday 26 May 2015 (issued every 30 minutes, with the page automatically refreshed every 10 minutes)

About weather observations | Map of weather stations | Latest weather observations for QLD | Other Formats
Station Details ID: 033308 Name: SAMUEL HILL AERO Lat: -22.74 Lon: 150.66 Height: 31.0 m
Data from the previous 72 hours. | See also: Recent months at Samuel Hill
Date/Time
EST
Temp
°C
App
Temp
°C
Dew
Point
Rel
Hum
%
Delta-T
°C
Wind Press
QNH
hPa
Press
MSL
hPa
Rain
since 9 am
mm
Dir
 
Spd
km/h
Gust
km/h
Spd
kts
Gust
kts
26/03:30am 18.0 17.6 16.3 90 1.0 S 13 22 7 12 1024.6 1024.5 1.2
26/03:00am 18.0 17.3 16.5 91 0.9 SSE 15 20 8 11 1024.4 1024.3 1.2
26/02:30am 18.3 17.3 16.6 90 1.0 SSE 17 28 9 15 1024.7 1024.6 1.2
26/02:00am 18.9 17.8 16.3 85 1.5 SSE 17 24 9 13 1024.7 1024.6 1.2
26/01:52am 19.1 18.0 16.3 84 1.7 SSE 17 26 9 14 1024.8 1024.7 1.2
26/01:30am 18.9 19.0 16.5 86 1.4 SSE 11 19 6 10 1024.9 1024.8 1.2
26/01:22am 18.8 18.5 16.4 86 1.4 SSE 13 20 7 11 1024.9 1024.8 1.2
26/01:00am 19.1 18.4 16.5 85 1.6 SSE 15 24 8 13 1025.0 1024.9 1.2
26/12:30am 19.1 18.1 16.7 86 1.4 SSE 17 28 9 15 1025.3 1025.2 1.2
26/12:24am 19.1 18.5 16.7 86 1.4 SSE 15 28 8 15 1025.3 1025.2 1.2
26/12:01am 19.0 18.8 16.8 87 1.3 SE 13 20 7 11 1025.3 1025.2 1.2
26/12:00am 19.1 19.0 16.9 87 1.3 SE 13 20 7 11 1025.3 1025.2 1.2
 
Date/Time
EST
Temp
°C
App
Temp
°C
Dew
Point
Rel
Hum
%
Delta-T
°C
Wind Press
QNH
hPa
Press
MSL
hPa
Rain
since 9 am
mm
Dir
 
Spd
km/h
Gust
km/h
Spd
kts
Gust
kts
25/11:30pm 18.7 18.5 16.7 88 1.2 SSE 13 17 7 9 1025.4 1025.3 1.2
25/11:00pm 18.9 17.9 16.7 87 1.3 SE 17 30 9 16 1025.6 1025.5 1.2
25/10:33pm 18.7 19.6 16.7 88 1.2 SE 7 11 4 6 1025.9 1025.8 1.2
25/10:30pm 18.7 19.6 16.7 88 1.2 SE 7 13 4 7 1025.8 1025.7 1.2
25/10:23pm 18.9 19.8 16.7 87 1.3 ESE 7 13 4 7 1025.9 1025.8 1.2
25/10:00pm 19.3 18.7 16.7 85 1.6 SE 15 20 8 11 1026.1 1026.0 1.2
25/09:30pm 19.9 19.0 16.9 83 1.8 SE 17 26 9 14 1025.8 1025.7 1.2
25/09:00pm 19.4 18.9 17.0 86 1.4 SE 15 26 8 14 1025.8 1025.7 1.2
25/08:30pm 19.1 19.7 16.7 86 1.4 SSE 9 15 5 8 1025.7 1025.6 1.2
25/08:00pm 19.3 19.4 16.5 84 1.7 SSE 11 15 6 8 1025.3 1025.2 1.2
25/07:30pm 19.8 20.3 16.6 82 1.9 SE 9 15 5 8 1025.0 1024.9 1.2
25/07:00pm 19.9 19.8 16.9 83 1.8 SSE 13 22 7 12 1024.9 1024.8 1.2
25/06:30pm 20.0 20.2 16.8 82 1.9 SE 11 17 6 9 1024.8 1024.7 1.0
25/06:00pm 20.0 19.8 16.8 82 1.9 SE 13 19 7 10 1024.6 1024.5 1.0
25/05:30pm 20.2 20.1 17.0 82 1.9 SE 13 22 7 12 1024.5 1024.4 1.0
25/05:00pm 20.9 20.5 17.1 79 2.3 SE 15 24 8 13 1024.6 1024.5 1.0
25/04:30pm 21.3 20.2 17.3 78 2.5 SE 19 28 10 15 1024.4 1024.3 1.0
25/04:00pm 21.7 21.1 17.5 77 2.6 SE 17 30 9 16 1024.4 1024.3 1.0
25/03:30pm 21.6 20.1 17.6 78 2.5 SE 22 32 12 17 1024.3 1024.2 1.0
25/03:24pm 21.7 20.9 18.1 80 2.2 SE 19 32 10 17 1024.3 1024.2 1.0
25/03:04pm 21.1 20.3 17.1 78 2.4 SE 17 28 9 15 1024.4 1024.3 1.0
25/03:00pm 21.8 21.3 17.8 78 2.5 SE 17 28 9 15 1024.3 1024.2 0.6
25/02:30pm 21.9 20.7 17.5 76 2.7 SE 20 32 11 17 1024.4 1024.3 0.6
25/02:00pm 23.2 22.8 18.1 73 3.2 ESE 17 24 9 13 1024.2 1024.1 0.6
25/01:30pm 22.3 21.6 17.4 74 3.0 SE 17 24 9 13 1024.4 1024.3 0.6
25/01:00pm 21.8 21.2 17.6 77 2.6 SSE 17 32 9 17 1024.7 1024.6 0.6
25/12:39pm 21.7 20.8 18.1 80 2.2 SSE 20 28 11 15 1024.9 1024.8 0.6
25/12:30pm 21.2 20.1 17.8 81 2.1 SSE 20 32 11 17 1025.1 1025.0 0.6
25/12:00pm 19.8 19.3 17.8 88 1.2 SSE 17 26 9 14 1025.7 1025.6 0.6
25/11:58am 19.7 19.2 17.8 89 1.2 SSE 17 26 9 14 1025.7 1025.6 0.6
25/11:52am 19.4 18.6 17.2 87 1.3 SSE 17 28 9 15 1025.7 1025.6 0.6
25/11:46am 19.7 19.2 17.8 89 1.2 SSE 17 28 9 15 1025.8 1025.7 0.6
25/11:33am 19.6 19.1 17.7 89 1.2 SE 17 32 9 17 1026.0 1025.9 0.6
25/11:30am 19.4 18.6 17.2 87 1.3 SE 17 32 9 17 1026.1 1026.0 0.6
25/11:25am 19.8 19.1 17.4 86 1.5 SSE 17 32 9 17 1026.2 1026.1 0.4
25/11:00am 20.1 18.9 17.5 85 1.6 SSE 20 30 11 16 1026.5 1026.4 0.0
25/10:30am 20.5 18.9 16.5 78 2.4 SSE 20 33 11 18 1026.8 1026.7 0.0
25/10:00am 20.4 19.7 17.4 83 1.8 SSE 17 30 9 16 1027.0 1026.9 0.0
25/09:30am 20.4 20.6 17.6 84 1.7 SSE 13 24 7 13 1026.8 1026.7 0.0
25/09:00am 19.8 20.9 18.1 90 1.0 S 9 15 5 8 1026.7 1026.6 10.0
25/08:48am 19.8 21.5 18.1 90 1.1 SSE 6 11 3 6 1026.6 1026.5 10.0
25/08:30am 19.2 19.2 17.3 89 1.2 ESE 13 24 7 13 1026.4 1026.3 10.0
25/08:26am 19.4 20.2 17.4 88 1.2 E 9 15 5 8 1026.5 1026.4 9.6
25/08:10am 19.5 21.1 17.8 90 1.0 E 6 9 3 5 1025.8 1025.7 9.0
25/08:05am 19.1 20.4 17.6 91 0.9 ENE 7 11 4 6 1025.9 1025.8 9.0
25/08:00am 18.8 19.6 17.3 91 0.9 ENE 9 20 5 11 1025.9 1025.8 9.0
25/07:30am 18.4 18.7 17.1 92 0.8 E 11 19 6 10 1025.9 1025.8 8.0
25/07:24am 18.5 18.9 17.2 92 0.8 ENE 11 19 6 10 1026.0 1025.9 6.8
25/07:20am 18.4 19.5 17.1 92 0.8 E 7 13 4 7 1026.1 1026.0 6.4
25/07:00am 18.3 18.8 16.6 90 1.0 SE 9 17 5 9 1025.6 1025.5 6.4
25/06:50am 18.4 17.4 16.6 89 1.1 SE 17 24 9 13 1025.4 1025.3 6.4
25/06:33am 18.5 18.1 17.2 92 0.8 SE 15 22 8 12 1025.5 1025.4 6.4
25/06:30am 18.5 18.5 17.2 92 0.8 SE 13 19 7 10 1025.5 1025.4 6.4
25/06:17am 18.7 19.3 16.8 89 1.1 SE 9 20 5 11 1025.2 1025.1 4.4
25/06:11am 18.9 17.6 16.9 88 1.2 SSE 19 32 10 17 1025.1 1025.0 4.4
25/06:00am 18.6 18.4 16.8 89 1.1 SSE 13 26 7 14 1024.8 1024.7 4.4
25/05:57am 18.4 18.6 16.7 90 1.0 SE 11 19 6 10 1024.9 1024.8 4.4
25/05:40am 18.6 18.9 16.9 90 1.0 ESE 11 17 6 9 1024.9 1024.8 4.2
25/05:30am 18.7 17.9 17.0 90 1.0 SE 17 26 9 14 1024.9 1024.8 4.2
25/05:00am 18.3 18.2 17.0 92 0.8 SE 13 24 7 13 1024.7 1024.6 4.2
25/04:59am 18.3 18.2 17.0 92 0.8 SE 13 24 7 13 1024.7 1024.6 4.2
25/04:30am 17.9 18.1 16.8 93 0.7 SSE 11 19 6 10 1024.6 1024.5 3.4
25/04:00am 17.9 18.0 16.6 92 0.8 E 11 17 6 9 1024.9 1024.8 2.6
25/03:47am 18.1 17.9 16.6 91 0.9 SE 13 22 7 12 1024.8 1024.7 0.8
25/03:36am 18.1 17.8 16.4 90 1.0 ESE 13 19 7 10 1024.9 1024.8 0.8
25/03:30am 18.1 17.4 16.4 90 1.0 SE 15 20 8 11 1024.9 1024.8 0.8
25/03:18am 18.1 17.8 16.4 90 1.0 SSE 13 17 7 9 1024.8 1024.7 0.8
25/03:00am 18.3 17.2 16.3 88 1.2 SE 17 24 9 13 1024.6 1024.5 0.8
25/02:51am 18.7 18.3 16.1 85 1.5 SE 13 19 7 10 1024.7 1024.6 0.4
25/02:30am 19.0 17.8 16.2 84 1.7 SSE 17 26 9 14 1024.8 1024.7 0.4
25/02:00am 19.1 18.4 16.5 85 1.6 SE 15 22 8 12 1025.2 1025.1 0.4
25/01:36am 19.1 19.0 16.9 87 1.3 SE 13 22 7 12 1025.6 1025.5 0.4
25/01:30am 18.9 19.2 16.9 88 1.2 SE 11 22 6 12 1025.6 1025.5 0.4
25/01:00am 19.4 18.2 16.2 82 1.9 SSE 17 24 9 13 1025.7 1025.6 0.0
25/12:30am 20.2 18.7 16.2 78 2.4 SE 19 37 10 20 1025.7 1025.6 0.0
25/12:00am 20.0 18.8 16.2 79 2.3 SE 17 24 9 13 1025.5 1025.4 0.0
 
Date/Time
EST
Temp
°C
App
Temp
°C
Dew
Point
Rel
Hum
%
Delta-T
°C
Wind Press
QNH
hPa
Press
MSL
hPa
Rain
since 9 am
mm
Dir
 
Spd
km/h
Gust
km/h
Spd
kts
Gust
kts
24/11:30pm 20.2 18.6 16.0 77 2.5 SE 19 28 10 15 1025.5 1025.4 0.0
24/11:00pm 20.2 18.4 15.6 75 2.7 SE 19 35 10 19 1025.6 1025.5 0.0
24/10:30pm 20.6 17.9 15.6 73 3.0 SE 24 37 13 20 1025.6 1025.5 0.0
24/10:00pm 20.8 18.6 16.0 74 2.9 SE 22 35 12 19 1025.7 1025.6 0.0
24/09:30pm 20.4 19.2 16.0 76 2.6 SE 17 32 9 17 1025.8 1025.7 0.0
24/09:00pm 20.9 19.1 16.1 74 2.9 SE 20 32 11 17 1025.8 1025.7 0.0
24/08:30pm 21.0 18.8 16.0 73 3.0 SE 22 41 12 22 1025.4 1025.3 0.0
24/08:00pm 20.9 19.6 15.9 73 3.0 SE 17 35 9 19 1025.4 1025.3 0.0
24/07:30pm 20.7 19.7 15.7 73 3.0 SE 15 24 8 13 1025.3 1025.2 0.0
24/07:00pm 20.7 19.3 15.5 72 3.1 SE 17 26 9 14 1025.1 1025.0 0.0
24/06:30pm 21.0 19.0 15.5 71 3.3 SE 20 32 11 17 1024.8 1024.7 0.0
24/06:00pm 21.1 19.3 16.1 73 3.0 SE 20 32 11 17 1024.6 1024.5 0.0
24/05:30pm 21.2 19.6 16.0 72 3.1 SE 19 32 10 17 1024.2 1024.1 0.0
24/05:00pm 21.3 20.2 16.3 73 3.0 SE 17 28 9 15 1023.9 1023.8 0.0
24/04:30pm 21.5 19.0 16.2 72 3.2 SE 24 33 13 18 1023.7 1023.6 0.0
24/04:00pm 21.6 19.0 15.9 70 3.4 SE 24 33 13 18 1023.4 1023.3 0.0
24/03:30pm 22.1 20.3 15.9 68 3.7 ESE 20 39 11 21 1023.3 1023.2 0.0
24/03:00pm 22.3 20.3 15.6 66 4.0 SE 20 43 11 23 1023.2 1023.1 0.0
24/02:30pm 22.0 20.1 15.8 68 3.7 SE 20 35 11 19 1023.3 1023.2 0.0
24/02:00pm 22.3 19.3 15.9 67 3.8 SE 26 37 14 20 1023.2 1023.1 0.0
24/01:30pm 22.3 19.2 15.6 66 4.0 SE 26 39 14 21 1023.3 1023.2 0.0
24/01:00pm 23.3 20.6 16.6 66 4.1 SE 26 39 14 21 1023.5 1023.4 0.0
24/12:30pm 22.8 19.9 16.1 66 4.1 SE 26 37 14 20 1023.6 1023.5 0.0
24/12:00pm 21.7 18.2 15.5 68 3.7 ESE 28 46 15 25 1024.2 1024.1 0.0
24/11:55am 21.9 18.5 15.7 68 3.7 SE 28 46 15 25 1024.2 1024.1 0.0
24/11:30am 21.6 18.6 15.9 70 3.4 SE 26 37 14 20 1024.4 1024.3 0.0
24/11:00am 21.5 18.8 15.6 69 3.5 SE 24 37 13 20 1024.7 1024.6 0.0
24/10:30am 21.2 17.6 15.3 69 3.5 SE 28 43 15 23 1024.8 1024.7 0.0
24/10:20am 21.2 17.5 15.1 68 3.6 SE 28 46 15 25 1024.7 1024.6 0.0
24/10:00am 20.8 18.0 15.4 71 3.2 SE 24 37 13 20 1024.7 1024.6 0.0
24/09:36am 20.3 16.6 15.1 72 3.1 SE 28 46 15 25 1024.7 1024.6 0.0
24/09:30am 20.3 17.5 15.3 73 3.0 SE 24 46 13 25 1024.7 1024.6 0.0
24/09:06am 20.0 17.1 15.2 74 2.8 SE 24 37 13 20 1024.6 1024.5 0.0
24/09:00am 20.0 17.6 15.4 75 2.7 SE 22 37 12 20 1024.5 1024.4 0.0
24/08:49am 19.4 17.0 15.3 77 2.4 SE 22 35 12 19 1024.4 1024.3 0.0
24/08:30am 19.5 17.4 15.2 76 2.5 SE 20 35 11 19 1024.3 1024.2 0.0
24/08:00am 19.1 17.0 14.8 76 2.5 SE 19 26 10 14 1023.9 1023.8 0.0
24/07:30am 18.7 16.9 14.4 76 2.5 SSE 17 26 9 14 1023.6 1023.5 0.0
24/07:00am 18.4 16.1 14.1 76 2.5 SSE 19 28 10 15 1023.2 1023.1 0.0
24/06:30am 18.3 16.3 13.8 75 2.6 SSE 17 26 9 14 1022.8 1022.7 0.0
24/06:00am 17.8 16.0 13.3 75 2.5 SSE 15 24 8 13 1022.5 1022.4 0.0
24/05:30am 18.1 15.6 13.4 74 2.7 SSE 19 28 10 15 1022.2 1022.1 0.0
24/05:00am 18.0 15.8 13.3 74 2.6 SSE 17 26 9 14 1022.0 1021.9 0.0
24/04:30am 18.2 15.6 13.3 73 2.8 SSE 19 28 10 15 1021.7 1021.6 0.0
24/04:00am 18.4 16.3 13.5 73 2.8 SSE 17 24 9 13 1021.7 1021.6 0.0
24/03:30am 18.6 16.5 13.5 72 2.9 SSE 17 28 9 15 1021.6 1021.5 0.0
24/03:00am 18.7 16.6 13.6 72 2.9 SSE 17 26 9 14 1021.4 1021.3 0.0
24/02:30am 18.4 16.6 13.3 72 2.9 SSE 15 24 8 13 1021.5 1021.4 0.0
24/02:00am 18.1 16.6 13.0 72 2.9 SSE 13 20 7 11 1021.6 1021.5 0.0
24/01:30am 18.3 16.0 13.0 71 3.0 SSE 17 22 9 12 1021.6 1021.5 0.0
24/01:00am 18.6 16.2 12.8 69 3.2 SSE 17 22 9 12 1021.7 1021.6 0.0
24/12:30am 19.4 15.8 12.9 66 3.7 SE 24 41 13 22 1021.8 1021.7 0.0
24/12:00am 19.5 16.6 13.0 66 3.7 SE 20 33 11 18 1022.0 1021.9 0.0
 
Date/Time
EST
Temp
°C
App
Temp
°C
Dew
Point
Rel
Hum
%
Delta-T
°C
Wind Press
QNH
hPa
Press
MSL
hPa
Rain
since 9 am
mm
Dir
 
Spd
km/h
Gust
km/h
Spd
kts
Gust
kts
23/11:30pm 19.4 16.7 12.9 66 3.7 SE 19 32 10 17 1022.0 1021.9 0.0
23/11:00pm 19.8 16.5 12.8 64 3.9 SE 22 37 12 20 1022.1 1022.0 0.0
23/10:30pm 20.1 17.3 13.3 65 3.9 SE 20 33 11 18 1022.3 1022.2 0.0
23/10:00pm 20.2 17.0 13.2 64 4.0 SE 22 33 12 18 1022.0 1021.9 0.0
23/09:30pm 20.7 17.5 13.2 62 4.3 SE 22 35 12 19 1022.0 1021.9 0.0
23/09:00pm 20.7 18.9 14.4 67 3.7 SE 17 28 9 15 1022.0 1021.9 0.0
23/08:30pm 20.6 18.6 14.0 66 3.8 SE 17 28 9 15 1022.1 1022.0 0.0
23/08:00pm 20.1 19.1 14.5 70 3.3 SSE 13 20 7 11 1021.8 1021.7 0.0
23/07:30pm 19.6 18.5 14.4 72 3.0 SSE 13 17 7 9 1021.5 1021.4 0.0
23/07:00pm 20.0 18.5 14.1 69 3.4 SSE 15 20 8 11 1021.2 1021.1 0.0
23/06:30pm 20.5 19.4 14.4 68 3.6 SSE 13 20 7 11 1021.0 1020.9 0.0
23/06:00pm 20.6 19.5 14.3 67 3.7 SE 13 19 7 10 1021.0 1020.9 0.0
23/05:30pm 20.5 19.1 14.4 68 3.6 SE 15 22 8 12 1020.8 1020.7 0.0
23/05:00pm 20.4 19.0 14.5 69 3.4 ESE 15 22 8 12 1020.8 1020.7 0.0
23/04:30pm 20.5 18.4 14.6 69 3.5 SE 19 26 10 14 1020.7 1020.6 0.0
23/04:00pm 20.6 18.4 14.9 70 3.3 SE 20 32 11 17 1020.5 1020.4 0.0
23/03:30pm 20.8 18.9 14.2 66 3.8 SE 17 33 9 18 1020.3 1020.2 0.0
23/03:00pm 20.7 17.8 13.9 65 3.9 SE 22 32 12 17 1020.1 1020.0 0.0
23/02:30pm 21.0 17.5 13.4 62 4.4 ESE 24 39 13 21 1020.2 1020.1 0.0
23/02:00pm 20.8 17.4 13.7 64 4.1 SE 24 32 13 17 1020.2 1020.1 0.0
23/01:30pm 21.6 18.4 13.2 59 4.8 SE 22 33 12 18 1020.3 1020.2 0.0
23/01:00pm 21.0 18.0 12.7 59 4.7 SSE 20 30 11 16 1020.6 1020.5 0.0
23/12:30pm 20.5 17.6 13.0 62 4.3 SE 20 30 11 16 1021.0 1020.9 0.0
23/12:00pm 19.9 17.0 12.2 61 4.3 SE 19 30 10 16 1021.6 1021.5 0.0
23/11:30am 20.1 17.2 12.3 61 4.4 SE 19 26 10 14 1021.7 1021.6 0.0
23/11:00am 19.4 16.8 11.9 62 4.1 SSE 17 28 9 15 1021.9 1021.8 0.0
23/10:30am 18.9 15.6 11.5 62 4.1 SE 20 33 11 18 1022.1 1022.0 0.0
23/10:00am 18.5 15.5 10.6 60 4.2 SSE 17 28 9 15 1022.1 1022.0 0.0
23/09:30am 17.8 14.7 10.2 61 4.0 SSE 17 30 9 16 1022.1 1022.0 0.0
23/09:00am 17.0 13.7 9.7 62 3.8 SSE 17 30 9 16 1021.9 1021.8 0.0
23/08:30am 16.1 12.7 9.1 63 3.6 SSE 17 26 9 14 1021.7 1021.6 0.0
23/08:00am 14.7 13.0 9.7 72 2.6 SSE 9 13 5 7 1021.3 1021.2 0.0
23/07:30am 12.1 10.5 8.9 81 1.6 SSE 7 9 4 5 1020.8 1020.7 0.0
23/07:00am 9.6 9.2 8.4 92 0.6 CALM 0 0 0 0 1020.6 1020.5 0.0
23/06:30am 8.7 7.8 7.6 93 0.5 ENE 2 7 1 4 1020.3 1020.2 0.0
23/06:00am 8.6 6.7 6.9 89 0.8 ESE 6 7 3 4 1020.0 1019.9 0.0
23/05:30am 9.7 7.9 7.1 84 1.2 ESE 6 7 3 4 1019.6 1019.5 0.0
23/05:00am 9.1 6.9 7.9 92 0.6 SE 9 13 5 7 1019.5 1019.4 0.0
23/04:30am 8.8 7.8 7.4 91 0.7 SE 2 7 1 4 1019.4 1019.3 0.0
23/04:00am 8.8 8.1 7.1 89 0.8 CALM 0 0 0 0 1019.3 1019.2 0.0

Other Formats:

Comma delimited format used in spreadsheet applications
http://www.bom.gov.au/fwo/IDQ60801/IDQ60801.94370.axf

JavaScript Object Notation format (JSON) in row-major order
http://www.bom.gov.au/fwo/IDQ60801/IDQ60801.94370.json